Time;durP1;ratioP1;P1;durP2;ratioP2;P2;SDS_P1;SDS_P2;PMS_P1;PMS_P2;Temp;Humidity;BMP_temperature;BMP_pressure;BME280_temperature;BME280_humidity;BME280_pressure;Samples;Min_cycle;Max_cycle;Signal;HPM_P1;HPM_P2
2022/08/16 00:01:07;;;;;;;0.40;0.30;;;18.40;99.90;;;;;;5031883;28;20472;-71
2022/08/16 00:03:33;;;;;;;0.40;0.30;;;18.40;99.90;;;;;;5031597;28;20406;-71
2022/08/16 00:05:58;;;;;;;0.40;0.30;;;18.40;99.90;;;;;;5015795;28;20422;-71
2022/08/16 00:08:24;;;;;;;0.40;0.30;;;18.30;99.90;;;;;;5032775;28;20982;-71
2022/08/16 00:10:50;;;;;;;0.40;0.30;;;18.30;99.90;;;;;;5032712;28;20479;-71
2022/08/16 00:13:15;;;;;;;0.70;0.70;;;18.20;99.90;;;;;;5031528;28;20418;-71
2022/08/16 00:15:45;;;;;;;0.40;0.20;;;18.20;99.90;;;;;;5033307;28;20390;-71
2022/08/16 00:18:11;;;;;;;0.40;0.20;;;18.10;99.90;;;;;;5026461;28;20395;-71
2022/08/16 00:20:39;;;;;;;0.40;0.20;;;18.10;99.90;;;;;;5031988;28;20474;-71
2022/08/16 00:23:05;;;;;;;0.40;0.20;;;18.00;99.90;;;;;;5031449;28;20449;-71
2022/08/16 00:25:31;;;;;;;0.50;0.50;;;18.00;99.90;;;;;;5032573;28;20406;-71
2022/08/16 00:27:57;;;;;;;0.40;0.20;;;18.00;99.90;;;;;;5031739;28;20383;-71
2022/08/16 00:30:23;;;;;;;0.40;0.20;;;18.00;99.90;;;;;;5031793;28;20425;-71
2022/08/16 00:32:52;;;;;;;0.40;0.30;;;18.00;99.90;;;;;;5025435;28;20387;-72
2022/08/16 00:35:28;;;;;;;0.60;0.60;;;17.90;99.90;;;;;;5032058;28;20383;-71
2022/08/16 00:37:56;;;;;;;0.40;0.20;;;17.90;99.90;;;;;;5032565;28;20410;-71
2022/08/16 00:40:35;;;;;;;0.40;0.30;;;18.00;99.90;;;;;;5032527;28;20587;-71
2022/08/16 00:43:05;;;;;;;0.40;0.20;;;18.10;99.90;;;;;;5032389;28;20866;-71
2022/08/16 00:45:42;;;;;;;0.40;0.40;;;18.10;99.90;;;;;;5014912;28;20442;-71
2022/08/16 00:48:12;;;;;;;0.40;0.20;;;18.10;99.90;;;;;;5032619;28;20387;-71
2022/08/16 00:50:39;;;;;;;0.40;0.30;;;18.00;99.90;;;;;;5032520;28;20387;-71
2022/08/16 00:53:08;;;;;;;0.40;0.30;;;18.10;99.90;;;;;;5032219;28;20390;-71
2022/08/16 00:55:36;;;;;;;0.40;0.30;;;18.20;99.90;;;;;;5032302;28;20410;-71
2022/08/16 00:58:03;;;;;;;0.40;0.30;;;18.10;99.90;;;;;;5032632;28;20470;-71
2022/08/16 01:00:30;;;;;;;0.40;0.20;;;18.10;99.90;;;;;;5032382;28;20389;-72
2022/08/16 01:02:58;;;;;;;0.40;0.27;;;18.10;99.90;;;;;;5032819;28;20459;-72
2022/08/16 01:05:24;;;;;;;0.40;0.20;;;18.10;99.90;;;;;;5032620;28;20411;-71
2022/08/16 01:07:51;;;;;;;0.40;0.30;;;18.10;99.90;;;;;;5032560;28;20799;-72
2022/08/16 01:10:16;;;;;;;0.40;0.30;;;18.10;99.90;;;;;;5014567;28;20765;-72
2022/08/16 01:12:42;;;;;;;0.40;0.30;;;18.00;99.90;;;;;;5031682;28;20391;-72
2022/08/16 01:15:09;;;;;;;0.40;0.40;;;18.00;99.90;;;;;;5030839;28;20449;-72
2022/08/16 01:17:35;;;;;;;1.10;1.00;;;17.90;99.90;;;;;;5030925;28;20449;-71
2022/08/16 01:20:05;;;;;;;0.40;0.20;;;17.90;99.90;;;;;;5031250;28;20466;-72
2022/08/16 01:22:51;;;;;;;0.40;0.30;;;17.80;99.90;;;;;;5013659;28;20387;-72
2022/08/16 01:25:26;;;;;;;1.70;0.80;;;17.80;99.90;;;;;;5031596;28;20375;-72
2022/08/16 01:27:54;;;;;;;0.80;0.80;;;17.80;99.90;;;;;;5014115;28;20416;-71
2022/08/16 01:30:25;;;;;;;0.40;0.20;;;17.90;99.90;;;;;;5032044;28;20426;-71
2022/08/16 01:32:51;;;;;;;0.40;0.30;;;17.80;99.90;;;;;;5031763;28;20410;-71
2022/08/16 01:35:22;;;;;;;0.40;0.30;;;17.80;99.90;;;;;;5029654;28;20418;-71
2022/08/16 01:37:52;;;;;;;0.40;0.20;;;17.80;99.90;;;;;;5031298;28;20493;-71
2022/08/16 01:40:21;;;;;;;0.40;0.20;;;17.90;99.90;;;;;;5022182;28;20386;-71
2022/08/16 01:42:48;;;;;;;0.40;0.30;;;17.90;99.90;;;;;;5031209;28;20471;-71
2022/08/16 01:45:15;;;;;;;0.68;0.68;;;17.90;99.90;;;;;;5032150;28;20383;-71
2022/08/16 01:47:43;;;;;;;0.40;0.20;;;17.80;99.90;;;;;;5025172;28;20460;-71
2022/08/16 01:50:09;;;;;;;0.40;0.30;;;17.90;99.90;;;;;;5031142;28;20391;-71
2022/08/16 01:52:34;;;;;;;0.50;0.50;;;17.90;99.90;;;;;;5055433;22;20503;-73
2022/08/16 01:55:00;;;;;;;0.40;0.40;;;17.90;99.90;;;;;;5046422;28;20485;-72
2022/08/16 01:57:27;;;;;;;0.60;0.60;;;17.90;99.90;;;;;;5045954;28;20383;-72
2022/08/16 01:59:52;;;;;;;0.40;0.20;;;18.00;99.90;;;;;;5029589;28;20395;-72
2022/08/16 02:02:18;;;;;;;1.70;1.00;;;18.00;99.90;;;;;;5027542;28;20398;-72
2022/08/16 02:04:44;;;;;;;0.40;0.28;;;18.10;99.90;;;;;;5009823;28;20396;-72
2022/08/16 02:07:11;;;;;;;0.40;0.20;;;17.90;99.90;;;;;;5010271;28;20417;-71
2022/08/16 02:09:38;;;;;;;0.40;0.20;;;17.90;99.90;;;;;;4992561;28;20415;-72
2022/08/16 02:12:07;;;;;;;0.60;0.60;;;17.80;99.90;;;;;;5010135;28;20396;-71
2022/08/16 02:14:33;;;;;;;0.40;0.40;;;17.60;99.90;;;;;;5009966;28;20780;-72
2022/08/16 02:17:01;;;;;;;0.57;0.57;;;17.60;99.90;;;;;;5010213;28;20389;-72
2022/08/16 02:19:29;;;;;;;0.40;0.35;;;17.60;99.90;;;;;;5009768;28;20381;-71
2022/08/16 02:21:56;;;;;;;0.40;0.30;;;17.50;99.90;;;;;;5010131;28;20389;-72
2022/08/16 02:24:22;;;;;;;0.40;0.20;;;17.60;99.90;;;;;;5009635;28;20393;-72
2022/08/16 02:26:49;;;;;;;0.60;0.60;;;17.40;99.90;;;;;;4992433;28;20404;-71
2022/08/16 02:29:17;;;;;;;0.82;0.77;;;17.50;99.90;;;;;;5009957;28;20472;-71
2022/08/16 02:31:43;;;;;;;0.40;0.30;;;17.50;99.90;;;;;;5009874;28;20388;-71
2022/08/16 02:34:09;;;;;;;0.40;0.30;;;17.40;99.90;;;;;;5009724;28;20393;-71
2022/08/16 02:36:35;;;;;;;0.40;0.40;;;17.40;99.90;;;;;;5009849;28;20467;-72
2022/08/16 02:39:01;;;;;;;0.60;0.60;;;17.30;99.90;;;;;;4992485;28;20480;-71
2022/08/16 02:41:29;;;;;;;0.40;0.30;;;17.40;99.90;;;;;;5010084;28;20388;-71
2022/08/16 02:43:55;;;;;;;0.40;0.30;;;17.40;99.90;;;;;;4992047;28;20499;-72
2022/08/16 02:46:20;;;;;;;0.40;0.20;;;17.30;99.90;;;;;;5009861;28;20914;-72
2022/08/16 02:48:46;;;;;;;0.40;0.30;;;17.30;99.90;;;;;;5010013;28;20397;-72
2022/08/16 02:51:11;;;;;;;0.40;0.20;;;17.30;99.90;;;;;;5010107;28;20819;-71
2022/08/16 02:53:47;;;;;;;0.40;0.30;;;17.30;99.90;;;;;;5009552;28;20468;-71
2022/08/16 02:56:15;;;;;;;0.60;0.60;;;17.10;99.90;;;;;;5012544;28;20392;-72
2022/08/16 02:58:42;;;;;;;0.50;0.50;;;17.10;99.90;;;;;;5013489;28;20384;-72
2022/08/16 03:01:09;;;;;;;0.40;0.30;;;17.20;99.90;;;;;;4995741;28;20429;-72
2022/08/16 03:03:35;;;;;;;0.63;0.63;;;17.20;99.90;;;;;;5013064;28;20400;-72
2022/08/16 03:06:01;;;;;;;0.40;0.30;;;17.20;99.90;;;;;;5013460;28;20964;-71
2022/08/16 03:08:27;;;;;;;0.40;0.30;;;17.20;99.90;;;;;;5013367;28;20468;-70
2022/08/16 03:10:53;;;;;;;0.40;0.30;;;17.10;99.90;;;;;;5013430;28;20464;-71
2022/08/16 03:13:19;;;;;;;0.40;0.20;;;17.00;99.90;;;;;;5012929;28;20754;-72
2022/08/16 03:15:45;;;;;;;0.40;0.40;;;17.00;99.90;;;;;;5013130;28;21290;-72
2022/08/16 03:18:11;;;;;;;0.40;0.40;;;17.00;99.90;;;;;;5013229;28;20468;-71
2022/08/16 03:20:38;;;;;;;0.40;0.30;;;17.00;99.90;;;;;;5013116;28;20381;-72
2022/08/16 03:23:04;;;;;;;0.40;0.30;;;17.00;99.90;;;;;;5012769;28;20846;-71
2022/08/16 03:25:30;;;;;;;0.40;0.20;;;17.00;99.90;;;;;;5012984;28;20435;-71
2022/08/16 03:27:56;;;;;;;0.40;0.30;;;17.00;99.90;;;;;;5012977;28;20419;-72
2022/08/16 03:30:28;;;;;;;0.40;0.40;;;17.00;99.90;;;;;;5012819;28;20385;-71
2022/08/16 03:32:55;;;;;;;0.40;0.30;;;17.00;99.90;;;;;;5027260;28;20445;-70
2022/08/16 03:35:23;;;;;;;0.40;0.20;;;17.00;99.90;;;;;;5032644;28;20395;-72
2022/08/16 03:37:55;;;;;;;0.40;0.22;;;16.80;99.90;;;;;;5032608;28;20461;-72
2022/08/16 03:40:21;;;;;;;0.40;0.20;;;16.80;99.90;;;;;;5032737;28;20379;-71
2022/08/16 03:42:46;;;;;;;0.40;0.20;;;16.80;99.90;;;;;;5032092;28;20397;-71
2022/08/16 03:45:13;;;;;;;0.40;0.30;;;16.90;99.90;;;;;;5032404;28;20787;-71
2022/08/16 03:47:39;;;;;;;0.40;0.20;;;16.70;99.90;;;;;;5014682;28;20398;-71
2022/08/16 03:50:05;;;;;;;0.43;0.32;;;16.80;99.90;;;;;;5032418;28;20473;-72
2022/08/16 03:52:31;;;;;;;0.40;0.20;;;16.80;99.90;;;;;;5031644;28;20407;-71
2022/08/16 03:54:57;;;;;;;0.40;0.30;;;16.80;99.90;;;;;;5032235;28;20387;-71
2022/08/16 03:57:23;;;;;;;0.52;0.52;;;16.80;99.90;;;;;;5032102;28;20754;-72
2022/08/16 03:59:48;;;;;;;0.40;0.20;;;16.80;99.90;;;;;;5032217;28;20397;-72
2022/08/16 04:02:17;;;;;;;0.40;0.30;;;16.80;99.90;;;;;;5014292;28;20979;-72
2022/08/16 04:04:43;;;;;;;0.40;0.20;;;16.80;99.90;;;;;;5031907;28;20453;-71
2022/08/16 04:07:09;;;;;;;0.40;0.20;;;16.80;99.90;;;;;;5031717;28;20403;-71
2022/08/16 04:09:35;;;;;;;0.40;0.20;;;16.80;99.90;;;;;;5031948;28;20383;-71
2022/08/16 04:12:03;;;;;;;0.40;0.30;;;16.70;99.90;;;;;;5031878;28;20470;-72
2022/08/16 04:14:29;;;;;;;0.40;0.30;;;16.70;99.90;;;;;;5031652;28;20380;-72
2022/08/16 04:16:55;;;;;;;0.40;0.40;;;16.70;99.90;;;;;;5031791;28;20402;-71
2022/08/16 04:19:22;;;;;;;0.40;0.40;;;16.70;99.90;;;;;;5014174;28;20430;-71
2022/08/16 04:21:47;;;;;;;0.50;0.40;;;16.70;99.90;;;;;;5031618;28;20480;-71
2022/08/16 04:24:13;;;;;;;0.40;0.30;;;16.70;99.90;;;;;;5031346;28;20411;-71
2022/08/16 04:26:39;;;;;;;1.40;1.30;;;16.70;99.90;;;;;;5031490;28;20490;-71
2022/08/16 04:29:04;;;;;;;0.40;0.30;;;16.80;99.90;;;;;;5031752;28;20484;-72
2022/08/16 04:31:30;;;;;;;0.47;0.47;;;16.80;99.90;;;;;;5011415;28;20773;-72
2022/08/16 04:33:58;;;;;;;0.60;0.60;;;16.70;99.90;;;;;;5027273;28;20392;-71
2022/08/16 04:36:26;;;;;;;0.40;0.32;;;16.70;99.90;;;;;;5023030;28;20473;-72
2022/08/16 04:38:52;;;;;;;0.40;0.30;;;16.80;99.90;;;;;;5031324;28;20469;-71
2022/08/16 04:41:17;;;;;;;0.50;0.50;;;16.80;99.90;;;;;;5031323;28;20391;-71
2022/08/16 04:43:43;;;;;;;0.40;0.30;;;16.80;99.90;;;;;;5031247;28;20388;-72
2022/08/16 04:46:08;;;;;;;0.40;0.30;;;16.70;99.90;;;;;;5031588;28;20772;-71
2022/08/16 04:48:34;;;;;;;0.40;0.30;;;16.70;99.90;;;;;;5031533;28;20944;-72
2022/08/16 04:51:00;;;;;;;0.40;0.20;;;16.70;99.90;;;;;;5031125;28;20383;-71
2022/08/16 04:53:27;;;;;;;0.40;0.30;;;16.70;99.90;;;;;;5030579;28;20869;-71
2022/08/16 04:55:53;;;;;;;1.10;0.90;;;16.70;99.90;;;;;;5013475;28;20425;-72
2022/08/16 04:58:19;;;;;;;0.50;0.30;;;16.80;99.90;;;;;;5031021;28;20418;-71
2022/08/16 05:00:45;;;;;;;0.40;0.20;;;16.80;99.90;;;;;;5010749;28;20473;-72
2022/08/16 05:03:12;;;;;;;0.40;0.30;;;16.70;99.90;;;;;;5030261;28;20842;-71
2022/08/16 05:05:40;;;;;;;0.40;0.40;;;16.70;99.90;;;;;;5022631;28;20819;-72
2022/08/16 05:08:07;;;;;;;0.40;0.30;;;16.70;99.90;;;;;;5024775;28;20404;-71
2022/08/16 05:10:33;;;;;;;0.40;0.40;;;16.80;99.90;;;;;;5022948;28;20568;-72
2022/08/16 05:13:01;;;;;;;0.40;0.20;;;16.90;99.90;;;;;;5022081;28;20812;-72
2022/08/16 05:15:27;;;;;;;0.40;0.30;;;16.80;99.90;;;;;;5019974;28;20403;-72
2022/08/16 05:17:53;;;;;;;0.40;0.30;;;16.80;99.90;;;;;;5023171;28;20827;-72
2022/08/16 05:20:19;;;;;;;0.40;0.30;;;17.00;99.90;;;;;;5021181;28;20483;-71
2022/08/16 05:22:45;;;;;;;0.40;0.40;;;17.00;99.90;;;;;;5028249;28;20402;-71
2022/08/16 05:25:12;;;;;;;0.40;0.30;;;17.00;99.90;;;;;;5020177;28;20410;-72
2022/08/16 05:27:39;;;;;;;0.50;0.50;;;16.90;99.90;;;;;;5024988;28;20438;-71
2022/08/16 05:30:06;;;;;;;0.50;0.50;;;16.90;99.90;;;;;;5030107;28;20391;-71
2022/08/16 05:32:33;;;;;;;0.40;0.20;;;17.00;99.90;;;;;;5008380;28;20393;-72
2022/08/16 05:34:59;;;;;;;0.40;0.30;;;17.00;99.90;;;;;;5011636;28;20385;-71
2022/08/16 05:37:24;;;;;;;0.50;0.50;;;17.10;99.90;;;;;;5020167;28;20405;-70
2022/08/16 05:39:51;;;;;;;0.50;0.50;;;17.10;99.90;;;;;;5029416;28;20442;-72
2022/08/16 05:42:16;;;;;;;0.40;0.30;;;17.20;99.90;;;;;;5021430;28;20411;-72
2022/08/16 05:44:42;;;;;;;0.50;0.50;;;17.20;99.90;;;;;;5015715;28;20777;-71
2022/08/16 05:47:08;;;;;;;0.40;0.30;;;17.20;99.90;;;;;;4997242;28;20787;-71
2022/08/16 05:49:33;;;;;;;0.40;0.40;;;17.30;99.90;;;;;;5026369;28;20463;-72
2022/08/16 05:51:59;;;;;;;0.40;0.30;;;17.40;99.90;;;;;;5020012;28;20416;-72
2022/08/16 05:54:26;;;;;;;0.40;0.30;;;17.40;99.90;;;;;;5019353;28;20419;-71
2022/08/16 05:56:56;;;;;;;0.40;0.30;;;17.40;99.90;;;;;;5007034;28;20440;-71
2022/08/16 05:59:23;;;;;;;0.40;0.30;;;17.50;99.90;;;;;;5025403;28;20756;-72
2022/08/16 06:01:50;;;;;;;1.60;1.50;;;17.50;99.90;;;;;;5023370;28;20522;-71
2022/08/16 06:04:16;;;;;;;0.50;0.50;;;17.60;99.90;;;;;;5016658;28;20407;-72
2022/08/16 06:06:44;;;;;;;0.40;0.20;;;17.70;99.90;;;;;;5018921;28;20426;-71
2022/08/16 06:09:11;;;;;;;0.60;0.60;;;17.70;99.90;;;;;;5005857;28;20900;-71
2022/08/16 06:11:38;;;;;;;0.40;0.30;;;17.70;99.90;;;;;;5019298;28;20454;-72
2022/08/16 06:14:03;;;;;;;0.40;0.40;;;17.80;99.90;;;;;;5026254;28;20905;-71
2022/08/16 06:16:29;;;;;;;0.40;0.30;;;17.90;99.90;;;;;;5022293;28;20499;-70
2022/08/16 06:18:55;;;;;;;0.40;0.30;;;18.00;99.90;;;;;;5024206;28;20418;-72
2022/08/16 06:21:20;;;;;;;0.40;0.30;;;18.10;99.90;;;;;;5020961;28;20402;-72
2022/08/16 06:23:46;;;;;;;0.40;0.30;;;18.10;99.90;;;;;;5018504;28;20409;-71
2022/08/16 06:26:12;;;;;;;0.40;0.30;;;18.20;99.90;;;;;;5019619;28;20410;-72
2022/08/16 06:28:37;;;;;;;0.43;0.30;;;18.30;99.90;;;;;;5021729;28;20471;-72
2022/08/16 06:31:05;;;;;;;0.40;0.30;;;18.30;99.90;;;;;;5031036;28;20466;-72
2022/08/16 06:33:31;;;;;;;0.40;0.35;;;18.40;99.90;;;;;;5024230;28;20416;-72
2022/08/16 06:35:57;;;;;;;0.40;0.40;;;18.50;99.90;;;;;;5026081;28;20409;-72
2022/08/16 06:38:22;;;;;;;0.40;0.30;;;18.60;99.90;;;;;;5018236;28;20902;-72
2022/08/16 06:40:49;;;;;;;0.40;0.30;;;18.70;99.90;;;;;;5021977;28;20404;-71
2022/08/16 06:43:15;;;;;;;0.40;0.30;;;18.70;99.90;;;;;;5014344;28;20475;-72
2022/08/16 06:45:42;;;;;;;0.40;0.30;;;18.80;99.90;;;;;;5022947;28;20406;-72
2022/08/16 06:48:09;;;;;;;0.40;0.30;;;18.90;99.90;;;;;;5024777;28;20414;-73
2022/08/16 06:50:34;;;;;;;0.60;0.60;;;18.90;99.90;;;;;;5019572;28;20413;-72
2022/08/16 06:53:01;;;;;;;0.40;0.30;;;19.00;99.90;;;;;;5021752;28;20805;-72
2022/08/16 06:55:28;;;;;;;0.82;0.82;;;19.10;99.90;;;;;;5003801;28;20411;-72
2022/08/16 06:57:54;;;;;;;0.40;0.30;;;19.20;99.90;;;;;;5021555;28;20883;-72
2022/08/16 07:00:20;;;;;;;0.40;0.20;;;19.30;99.90;;;;;;5016275;28;20439;-72
2022/08/16 07:02:45;;;;;;;0.40;0.30;;;19.30;99.90;;;;;;5024562;28;20495;-72
2022/08/16 07:05:12;;;;;;;0.40;0.30;;;19.50;99.90;;;;;;5026358;28;20855;-72
2022/08/16 07:07:38;;;;;;;0.90;0.80;;;19.50;99.90;;;;;;5021224;28;20466;-73
2022/08/16 07:10:06;;;;;;;0.40;0.30;;;19.60;99.90;;;;;;5026268;28;20406;-73
2022/08/16 07:12:31;;;;;;;0.40;0.20;;;19.80;99.90;;;;;;5024095;28;20391;-72
2022/08/16 07:14:59;;;;;;;0.40;0.30;;;19.80;99.90;;;;;;5023887;28;20814;-72
2022/08/16 07:17:25;;;;;;;0.40;0.30;;;20.00;99.90;;;;;;5010320;28;20409;-72
2022/08/16 07:19:51;;;;;;;1.10;1.00;;;20.10;99.90;;;;;;5024436;28;20540;-73
2022/08/16 07:22:18;;;;;;;0.40;0.20;;;20.20;99.90;;;;;;5019231;28;20873;-72
2022/08/16 07:24:44;;;;;;;0.40;0.30;;;20.20;99.90;;;;;;5023447;28;20414;-72
2022/08/16 07:27:10;;;;;;;0.40;0.30;;;20.30;99.90;;;;;;5024532;28;20781;-72
2022/08/16 07:29:36;;;;;;;0.40;0.40;;;20.30;99.90;;;;;;5018117;28;20432;-72
2022/08/16 07:32:03;;;;;;;0.40;0.30;;;20.40;99.90;;;;;;5018793;28;20419;-72
2022/08/16 07:34:28;;;;;;;0.50;0.40;;;20.40;99.90;;;;;;5025525;28;20419;-73
2022/08/16 07:36:54;;;;;;;0.50;0.50;;;20.60;99.90;;;;;;5019521;28;20421;-73
2022/08/16 07:39:20;;;;;;;0.40;0.20;;;20.60;99.90;;;;;;5021734;28;20437;-72
2022/08/16 07:41:45;;;;;;;0.40;0.30;;;20.80;99.90;;;;;;5009161;28;20492;-73
2022/08/16 07:44:11;;;;;;;0.40;0.30;;;21.00;99.90;;;;;;5023152;28;20854;-73
2022/08/16 07:46:36;;;;;;;0.50;0.43;;;21.20;99.90;;;;;;5021476;28;20412;-72
2022/08/16 07:49:03;;;;;;;0.70;0.60;;;21.30;99.90;;;;;;5023281;28;20430;-72
2022/08/16 07:51:33;;;;;;;0.50;0.40;;;21.50;99.90;;;;;;5022095;28;20400;-72
2022/08/16 07:54:01;;;;;;;1.42;0.75;;;21.70;99.90;;;;;;5075368;22;20429;-72
2022/08/16 07:56:30;;;;;;;0.40;0.30;;;21.80;99.90;;;;;;5073483;28;20889;-72
2022/08/16 07:58:56;;;;;;;0.60;0.60;;;21.90;99.90;;;;;;5073579;28;20787;-72
2022/08/16 08:01:22;;;;;;;0.90;0.70;;;22.20;99.90;;;;;;5073697;28;20394;-72
2022/08/16 08:03:48;;;;;;;0.40;0.30;;;22.20;99.90;;;;;;5062824;28;20887;-73
2022/08/16 08:06:16;;;;;;;0.40;0.30;;;22.10;99.90;;;;;;5052940;28;20496;-72
2022/08/16 08:08:42;;;;;;;0.40;0.30;;;22.20;99.90;;;;;;5068581;28;20439;-72
2022/08/16 08:11:08;;;;;;;0.40;0.30;;;22.40;99.90;;;;;;5073670;28;20405;-72
2022/08/16 08:13:34;;;;;;;0.40;0.30;;;22.50;99.90;;;;;;5073394;28;20529;-72
2022/08/16 08:15:59;;;;;;;0.80;0.70;;;22.60;99.90;;;;;;5073277;28;20725;-72
2022/08/16 08:18:25;;;;;;;0.50;0.50;;;22.60;99.90;;;;;;5049487;28;20431;-72
2022/08/16 08:20:50;;;;;;;0.40;0.40;;;22.70;99.90;;;;;;5052076;28;20971;-72
2022/08/16 08:23:17;;;;;;;0.40;0.32;;;22.80;99.90;;;;;;5048360;28;20511;-72
2022/08/16 08:25:44;;;;;;;0.50;0.40;;;22.70;99.90;;;;;;5049454;28;20799;-72
2022/08/16 08:28:10;;;;;;;0.40;0.30;;;22.80;99.90;;;;;;5052077;28;20447;-72
2022/08/16 08:30:35;;;;;;;0.40;0.40;;;22.90;99.90;;;;;;5049778;28;20972;-72
2022/08/16 08:33:01;;;;;;;0.40;0.30;;;22.80;99.90;;;;;;5048445;28;20413;-72
2022/08/16 08:35:28;;;;;;;0.40;0.30;;;22.80;99.90;;;;;;5051573;28;20385;-72
2022/08/16 08:37:54;;;;;;;0.40;0.30;;;22.70;99.90;;;;;;5046364;28;20426;-72
2022/08/16 08:40:21;;;;;;;0.40;0.30;;;23.00;99.90;;;;;;5049900;28;20900;-72
2022/08/16 08:42:46;;;;;;;0.40;0.30;;;23.20;99.90;;;;;;5045409;28;20391;-72
2022/08/16 08:45:14;;;;;;;0.40;0.30;;;23.20;99.90;;;;;;5055570;28;20881;-71
2022/08/16 08:47:41;;;;;;;0.40;0.30;;;23.20;99.90;;;;;;5045253;28;20413;-71
2022/08/16 08:50:09;;;;;;;0.50;0.35;;;23.30;99.90;;;;;;5062128;28;21259;-72
2022/08/16 08:52:36;;;;;;;0.40;0.20;;;23.20;99.90;;;;;;5050010;28;20381;-72
2022/08/16 08:55:06;;;;;;;0.40;0.30;;;23.30;99.90;;;;;;5051630;28;20401;-72
2022/08/16 08:57:32;;;;;;;0.60;0.60;;;23.50;99.90;;;;;;5051624;28;20421;-72
2022/08/16 08:59:58;;;;;;;0.40;0.30;;;23.50;99.90;;;;;;5051697;28;20394;-72
2022/08/16 09:02:23;;;;;;;0.40;0.20;;;23.60;99.90;;;;;;5049849;28;20405;-72
2022/08/16 09:04:49;;;;;;;0.40;0.30;;;23.70;99.90;;;;;;5052265;28;20753;-72
2022/08/16 09:07:16;;;;;;;0.40;0.30;;;23.70;99.90;;;;;;5052832;28;20483;-71
2022/08/16 09:09:41;;;;;;;0.40;0.30;;;23.70;99.90;;;;;;5051990;28;20385;-72
2022/08/16 09:12:07;;;;;;;0.40;0.30;;;23.60;99.90;;;;;;5051233;28;20434;-72
2022/08/16 09:14:37;;;;;;;0.40;0.20;;;23.70;99.90;;;;;;5051369;28;20474;-72
2022/08/16 09:17:03;;;;;;;0.40;0.30;;;23.90;99.90;;;;;;5054758;28;20410;-72
2022/08/16 09:19:28;;;;;;;0.60;0.60;;;24.00;99.90;;;;;;5072048;28;20911;-72
2022/08/16 09:21:54;;;;;;;0.40;0.33;;;24.00;99.90;;;;;;5066918;28;20395;-71
2022/08/16 09:24:20;;;;;;;0.70;0.70;;;24.00;99.90;;;;;;5050600;28;20451;-72
2022/08/16 09:26:46;;;;;;;0.40;0.40;;;24.00;99.90;;;;;;5060102;28;20427;-71
2022/08/16 09:29:11;;;;;;;0.60;0.60;;;24.20;99.90;;;;;;5045969;28;20456;-72
2022/08/16 09:31:37;;;;;;;0.40;0.20;;;24.30;99.90;;;;;;5051098;28;20385;-71
2022/08/16 09:34:03;;;;;;;0.40;0.20;;;24.20;99.90;;;;;;5051600;28;20389;-72
2022/08/16 09:36:28;;;;;;;0.40;0.30;;;24.30;99.90;;;;;;5051498;28;20420;-72
2022/08/16 09:38:55;;;;;;;0.40;0.30;;;24.30;99.90;;;;;;5052072;28;20739;-71
2022/08/16 09:41:21;;;;;;;0.40;0.30;;;24.40;99.90;;;;;;5051845;28;20410;-72
2022/08/16 09:43:46;;;;;;;0.40;0.30;;;24.40;99.80;;;;;;5050855;28;20386;-72
2022/08/16 09:46:12;;;;;;;0.40;0.30;;;24.40;99.70;;;;;;5050951;28;20416;-71
2022/08/16 09:48:40;;;;;;;0.60;0.50;;;24.40;99.90;;;;;;5051977;28;20461;-71
2022/08/16 09:51:08;;;;;;;0.40;0.30;;;24.50;98.70;;;;;;5051142;28;20755;-72
2022/08/16 09:53:35;;;;;;;0.90;0.90;;;24.50;98.90;;;;;;5050596;28;20389;-73
2022/08/16 09:56:03;;;;;;;0.40;0.40;;;24.60;97.50;;;;;;5050241;28;20744;-72
2022/08/16 09:58:29;;;;;;;0.60;0.50;;;24.60;95.90;;;;;;5048610;28;20496;-73
2022/08/16 10:00:54;;;;;;;0.40;0.20;;;24.60;95.10;;;;;;5050116;28;20523;-73
2022/08/16 10:03:20;;;;;;;0.40;0.30;;;24.70;94.20;;;;;;5050009;28;20391;-73
2022/08/16 10:05:46;;;;;;;0.40;0.30;;;24.70;93.10;;;;;;5054314;28;20496;-73
2022/08/16 10:08:12;;;;;;;0.40;0.40;;;24.70;93.30;;;;;;5055586;28;21145;-73
2022/08/16 10:13:10;;;;;;;0.40;0.30;;;24.90;94.40;;;;;;5054736;28;20743;-74
2022/08/16 10:13:27;;;;;;;0.40;0.20;;;25.00;92.80;;;;;;5053896;28;20917;-73
2022/08/16 10:15:53;;;;;;;0.40;0.30;;;25.00;90.80;;;;;;5054902;28;20397;-72
2022/08/16 10:18:19;;;;;;;0.40;0.30;;;25.10;92.80;;;;;;5054880;28;20381;-74
2022/08/16 10:20:46;;;;;;;0.40;0.40;;;25.10;91.00;;;;;;5053550;28;20399;-74
2022/08/16 10:23:14;;;;;;;0.40;0.30;;;25.20;91.90;;;;;;5054775;28;20735;-73
2022/08/16 10:25:42;;;;;;;0.40;0.40;;;25.40;90.70;;;;;;5053673;28;20446;-73
2022/08/16 10:28:09;;;;;;;0.50;0.50;;;25.40;91.60;;;;;;5055189;28;20933;-73
2022/08/16 10:30:36;;;;;;;0.50;0.43;;;25.40;90.30;;;;;;5054868;28;20386;-74
2022/08/16 10:33:02;;;;;;;0.40;0.30;;;25.60;90.00;;;;;;5055548;28;20834;-74
2022/08/16 10:35:28;;;;;;;0.40;0.30;;;25.50;86.40;;;;;;5056220;28;20385;-73
2022/08/16 10:37:53;;;;;;;0.40;0.30;;;25.70;87.40;;;;;;5055901;28;20452;-74
2022/08/16 10:40:20;;;;;;;0.40;0.30;;;25.80;87.20;;;;;;5055288;28;20468;-73
2022/08/16 10:42:48;;;;;;;0.40;0.30;;;25.70;86.70;;;;;;5054811;28;20513;-73
2022/08/16 10:45:14;;;;;;;0.70;0.70;;;25.80;87.60;;;;;;5056881;28;20373;-74
2022/08/16 10:47:39;;;;;;;0.40;0.20;;;25.70;86.90;;;;;;5057662;28;20448;-73
2022/08/16 10:50:06;;;;;;;0.40;0.20;;;25.80;83.30;;;;;;5056594;28;20381;-73
2022/08/16 10:52:32;;;;;;;0.40;0.20;;;25.80;82.10;;;;;;5055637;28;20963;-73
2022/08/16 10:54:59;;;;;;;0.40;0.20;;;25.90;84.90;;;;;;5055335;28;20386;-73
2022/08/16 10:57:26;;;;;;;0.40;0.30;;;26.30;82.60;;;;;;5055200;28;20385;-73
2022/08/16 10:59:52;;;;;;;0.40;0.20;;;26.10;80.90;;;;;;5053948;28;20388;-74
2022/08/16 11:02:19;;;;;;;0.40;0.30;;;26.20;84.30;;;;;;5053241;28;20830;-72
2022/08/16 11:04:45;;;;;;;0.40;0.30;;;26.30;79.40;;;;;;5045889;28;20424;-72
2022/08/16 11:07:11;;;;;;;0.90;0.60;;;26.50;77.10;;;;;;5035858;28;20450;-73
2022/08/16 11:09:39;;;;;;;0.40;0.20;;;26.50;76.10;;;;;;5033291;28;20379;-71
2022/08/16 11:12:05;;;;;;;0.90;0.50;;;26.50;74.60;;;;;;5033102;28;20391;-73
2022/08/16 11:14:31;;;;;;;0.40;0.20;;;26.50;73.30;;;;;;5032672;28;20935;-74
2022/08/16 11:16:58;;;;;;;0.40;0.30;;;26.70;71.90;;;;;;5032162;28;20464;-74
2022/08/16 11:19:24;;;;;;;0.60;0.60;;;26.90;70.90;;;;;;5031746;28;20757;-73
2022/08/16 11:21:50;;;;;;;0.40;0.30;;;26.70;73.00;;;;;;5032713;28;20387;-72
2022/08/16 11:24:16;;;;;;;0.40;0.30;;;27.10;70.20;;;;;;5032763;28;20520;-73
2022/08/16 11:26:41;;;;;;;0.40;0.22;;;27.10;69.80;;;;;;5033062;28;20453;-73
2022/08/16 11:29:08;;;;;;;0.40;0.20;;;27.30;69.90;;;;;;5033148;28;20383;-73
2022/08/16 11:31:34;;;;;;;0.40;0.20;;;27.20;70.10;;;;;;5037775;28;20389;-73
2022/08/16 11:34:00;;;;;;;0.40;0.40;;;27.30;70.10;;;;;;5045825;28;20401;-74
2022/08/16 11:36:25;;;;;;;0.40;0.30;;;27.60;69.70;;;;;;5042245;28;20391;-74
2022/08/16 11:38:51;;;;;;;0.40;0.30;;;27.90;69.50;;;;;;5036455;28;20481;-74
2022/08/16 11:41:17;;;;;;;0.50;0.40;;;28.40;65.60;;;;;;5052521;28;20442;-73
2022/08/16 11:43:43;;;;;;;0.50;0.40;;;28.90;63.60;;;;;;5051939;28;20392;-72
2022/08/16 11:46:12;;;;;;;0.40;0.20;;;29.20;62.80;;;;;;5052490;28;20508;-72
2022/08/16 11:48:38;;;;;;;0.40;0.20;;;29.20;59.20;;;;;;5052832;28;20381;-71
2022/08/16 11:51:04;;;;;;;0.40;0.20;;;29.50;60.00;;;;;;5052504;28;20496;-72
2022/08/16 11:53:31;;;;;;;0.40;0.30;;;29.70;59.80;;;;;;5052213;28;20451;-72
2022/08/16 11:55:58;;;;;;;0.40;0.20;;;29.90;58.20;;;;;;5052508;28;20472;-71
2022/08/16 11:58:25;;;;;;;0.40;0.20;;;30.10;57.50;;;;;;5052152;28;20417;-72
2022/08/16 12:00:52;;;;;;;0.40;0.20;;;29.60;57.70;;;;;;5052137;28;20428;-72
2022/08/16 12:03:18;;;;;;;0.40;0.20;;;29.50;56.90;;;;;;5051785;28;20798;-73
2022/08/16 12:05:45;;;;;;;0.40;0.20;;;29.20;57.50;;;;;;5044009;28;20434;-71
2022/08/16 12:08:14;;;;;;;0.40;0.20;;;29.70;58.60;;;;;;5032027;28;20466;-72
2022/08/16 12:10:41;;;;;;;0.40;0.20;;;29.70;57.20;;;;;;5032121;28;20474;-72
2022/08/16 12:13:08;;;;;;;0.40;0.20;;;30.10;56.80;;;;;;5031521;28;21079;-72
2022/08/16 12:15:34;;;;;;;0.50;0.30;;;30.20;54.10;;;;;;5032063;28;20827;-72
2022/08/16 12:18:01;;;;;;;0.50;0.40;;;30.20;54.30;;;;;;5031786;28;20384;-73
2022/08/16 12:20:30;;;;;;;0.40;0.22;;;30.70;54.70;;;;;;5031889;28;20391;-73
2022/08/16 12:22:56;;;;;;;0.40;0.20;;;31.00;54.00;;;;;;5031410;28;20394;-73
2022/08/16 12:25:26;;;;;;;0.40;0.20;;;30.80;52.00;;;;;;5030121;28;20391;-73
2022/08/16 12:27:52;;;;;;;0.40;0.20;;;30.80;52.30;;;;;;5041781;28;20935;-74
2022/08/16 12:30:27;;;;;;;0.40;0.20;;;30.10;52.60;;;;;;5047447;28;20448;-73
2022/08/16 12:32:53;;;;;;;0.40;0.20;;;30.70;53.60;;;;;;5043695;28;20937;-73
2022/08/16 12:35:20;;;;;;;0.40;0.20;;;30.00;51.70;;;;;;5041314;28;20427;-74
2022/08/16 12:37:47;;;;;;;0.40;0.20;;;29.80;54.20;;;;;;5039605;28;20422;-73
2022/08/16 12:40:20;;;;;;;0.40;0.20;;;30.40;53.20;;;;;;5039670;28;20878;-73
2022/08/16 12:42:48;;;;;;;0.40;0.23;;;30.80;51.90;;;;;;5041652;28;20387;-74
2022/08/16 12:45:14;;;;;;;0.40;0.20;;;30.60;52.60;;;;;;5039705;28;20385;-74